createdAt,value
2022-11-22T00:03:51.577Z,1406
2022-11-22T00:09:09.792Z,1402
2022-11-22T00:14:28.546Z,1401
2022-11-22T00:19:47.299Z,1394
2022-11-22T00:25:06.068Z,1384
2022-11-22T00:30:24.612Z,1387
2022-11-22T00:35:43.333Z,1386
2022-11-22T00:41:01.949Z,1432
2022-11-22T00:46:20.419Z,1425
2022-11-22T00:51:38.618Z,1425
2022-11-22T00:56:56.815Z,1435
2022-11-22T01:02:15.082Z,1442
2022-11-22T01:07:33.668Z,1457
2022-11-22T01:12:51.792Z,1484
2022-11-22T01:18:10.010Z,1495
2022-11-22T01:23:28.194Z,1513
2022-11-22T01:28:46.660Z,1534
2022-11-22T01:34:05.231Z,1557
2022-11-22T01:39:23.708Z,1574
2022-11-22T01:44:41.911Z,1587
2022-11-22T01:50:00.695Z,1601
2022-11-22T01:55:18.878Z,1603
2022-11-22T02:00:37.062Z,1622
2022-11-22T02:05:55.543Z,1625
2022-11-22T02:11:13.996Z,1628
2022-11-22T02:16:32.233Z,1619
2022-11-22T02:21:50.502Z,1620
2022-11-22T02:27:08.986Z,1610
2022-11-22T02:32:27.435Z,1617
2022-11-22T02:37:45.964Z,1612
2022-11-22T02:43:04.945Z,1605
2022-11-22T02:48:23.422Z,1603
2022-11-22T02:53:41.904Z,1594
2022-11-22T02:59:00.112Z,1591
2022-11-22T03:04:18.889Z,1592
2022-11-22T03:09:37.391Z,1588
2022-11-22T03:14:56.147Z,1584
2022-11-22T03:20:14.888Z,1582
2022-11-22T03:25:33.398Z,1578
2022-11-22T03:30:52.152Z,1565
2022-11-22T03:36:10.945Z,1566
2022-11-22T03:41:29.205Z,1565
2022-11-22T03:46:47.682Z,1558
2022-11-22T03:52:06.158Z,1548
2022-11-22T03:57:24.944Z,1553
2022-11-22T04:02:43.728Z,1539
2022-11-22T04:08:02.471Z,1553
2022-11-22T04:13:20.961Z,1554
2022-11-22T04:18:39.154Z,1556
2022-11-22T04:23:57.634Z,1563
2022-11-22T04:29:15.603Z,1572
2022-11-22T04:34:34.088Z,1570
2022-11-22T04:39:52.276Z,1564
2022-11-22T04:45:10.532Z,1575
2022-11-22T04:50:29.284Z,1560
2022-11-22T04:55:47.465Z,1546
2022-11-22T05:01:06.362Z,1524
2022-11-22T05:06:24.911Z,1511
2022-11-22T05:11:43.389Z,1509
2022-11-22T05:17:01.917Z,1493
2022-11-22T05:22:20.676Z,1471
2022-11-22T05:27:39.131Z,1472
2022-11-22T05:32:57.090Z,1438
2022-11-22T05:38:15.270Z,1215
2022-11-22T05:43:34.044Z,1081
2022-11-22T05:48:52.576Z,784
2022-11-22T05:54:10.789Z,1004
2022-11-22T05:59:29.551Z,1082
2022-11-22T06:04:48.566Z,1139
2022-11-22T06:10:07.038Z,1178
2022-11-22T06:15:24.941Z,1187
2022-11-22T06:20:43.670Z,1187
2022-11-22T06:26:01.888Z,1182
2022-11-22T06:31:05.033Z,1169
2022-11-22T06:36:23.552Z,1162
2022-11-22T06:41:41.999Z,1154
2022-11-22T06:47:00.804Z,1153
2022-11-22T06:52:19.002Z,1149
2022-11-22T06:57:37.775Z,1148
2022-11-22T07:02:55.990Z,1153
2022-11-22T07:08:14.377Z,1157
2022-11-22T07:13:32.933Z,1163
2022-11-22T07:18:51.460Z,1172
2022-11-22T07:24:09.979Z,1171
2022-11-22T07:29:28.781Z,1169
2022-11-22T07:34:48.616Z,1168
2022-11-22T07:40:06.869Z,1165
2022-11-22T07:45:25.052Z,1169
2022-11-22T07:50:43.859Z,1168
2022-11-22T07:56:01.920Z,1173
2022-11-22T08:01:20.702Z,1167
2022-11-22T08:06:39.076Z,1167
2022-11-22T08:11:57.566Z,1162
2022-11-22T08:17:16.081Z,1157
2022-11-22T08:22:34.802Z,1143
2022-11-22T08:27:52.828Z,1138
2022-11-22T08:33:11.586Z,1126
2022-11-22T08:38:29.901Z,1121
2022-11-22T08:43:48.334Z,1108
2022-11-22T08:49:06.858Z,1097
2022-11-22T08:54:25.456Z,1086
2022-11-22T08:59:44.487Z,1074
2022-11-22T09:05:03.366Z,1071
2022-11-22T09:10:21.787Z,1062
2022-11-22T09:15:40.417Z,1056
2022-11-22T09:20:58.625Z,1053
2022-11-22T09:26:17.090Z,1047
2022-11-22T09:31:35.524Z,1040
2022-11-22T09:36:53.985Z,1043
2022-11-22T09:42:12.740Z,1038
2022-11-22T09:47:31.426Z,1044
2022-11-22T09:52:49.627Z,1040
2022-11-22T09:58:07.984Z,1036
2022-11-22T10:03:26.483Z,1035
2022-11-22T10:08:44.963Z,1027
2022-11-22T10:14:03.608Z,1036
2022-11-22T10:19:21.730Z,1057
2022-11-22T10:24:40.009Z,1055
2022-11-22T10:29:58.266Z,1052
2022-11-22T10:35:16.838Z,1044
2022-11-22T10:40:35.104Z,1040
2022-11-22T10:45:53.744Z,1031
2022-11-22T10:51:12.226Z,1026
2022-11-22T10:56:30.962Z,1022
2022-11-22T11:01:49.274Z,1016
2022-11-22T11:07:12.354Z,1011
2022-11-22T11:12:31.502Z,1004
2022-11-22T11:17:49.648Z,1003
2022-11-22T11:23:16.178Z,1003
2022-11-22T11:28:35.187Z,992
2022-11-22T11:33:54.079Z,994
2022-11-22T11:39:12.854Z,988
2022-11-22T11:44:31.347Z,986
2022-11-22T11:49:51.181Z,988
2022-11-22T11:55:09.999Z,977
2022-11-22T12:00:28.834Z,976
2022-11-22T12:05:47.451Z,971
2022-11-22T12:11:05.920Z,966
2022-11-22T12:16:24.737Z,963
2022-11-22T12:21:43.417Z,960
2022-11-22T12:27:02.415Z,951
2022-11-22T12:32:20.616Z,956
2022-11-22T12:37:39.032Z,950
2022-11-22T12:42:58.017Z,951
2022-11-22T12:48:16.204Z,943
2022-11-22T12:53:34.311Z,934
2022-11-22T12:58:52.787Z,929
2022-11-22T13:04:10.993Z,923
2022-11-22T13:09:29.574Z,923
2022-11-22T13:14:48.639Z,915
2022-11-22T13:20:06.898Z,1121
2022-11-22T13:25:25.261Z,991
2022-11-22T13:30:43.513Z,932
2022-11-22T13:36:01.719Z,905
2022-11-22T13:41:20.064Z,898
2022-11-22T13:46:39.129Z,897
2022-11-22T13:51:57.971Z,900
2022-11-22T13:57:16.437Z,903
2022-11-22T14:02:34.929Z,902
2022-11-22T14:07:53.488Z,896
2022-11-22T14:13:12.634Z,900
2022-11-22T14:18:31.288Z,890
2022-11-22T14:23:49.192Z,870
2022-11-22T14:29:08.081Z,870
2022-11-22T14:34:26.541Z,872
2022-11-22T14:39:44.715Z,872
2022-11-22T14:45:03.093Z,878
2022-11-22T14:50:21.854Z,877
2022-11-22T14:55:40.414Z,878
2022-11-22T15:00:58.806Z,882
2022-11-22T15:09:08.625Z,882
2022-11-22T16:02:25.503Z,941
2022-11-22T16:07:43.818Z,945
2022-11-22T16:13:01.912Z,945
2022-11-22T16:18:20.466Z,946
2022-11-22T16:23:39.225Z,949
2022-11-22T16:28:58.038Z,946
2022-11-22T16:34:16.911Z,949
2022-11-22T16:39:35.099Z,952
2022-11-22T16:44:53.285Z,951
2022-11-22T16:50:16.392Z,943
2022-11-22T16:55:34.599Z,937
2022-11-22T17:00:53.194Z,942
2022-11-22T17:05:56.361Z,820
2022-11-22T17:11:14.505Z,850
2022-11-22T17:16:32.980Z,882
2022-11-22T17:21:38.007Z,897
2022-11-22T17:26:56.605Z,898
2022-11-22T17:32:14.820Z,904
2022-11-22T17:37:33.416Z,911
2022-11-22T17:42:51.909Z,943
2022-11-22T17:48:10.080Z,959
2022-11-22T17:53:28.775Z,960
2022-11-22T17:58:47.478Z,988
2022-11-22T18:04:06.292Z,1053
2022-11-22T18:09:25.128Z,1110
2022-11-22T18:14:43.618Z,1123
2022-11-22T18:20:02.343Z,1127
2022-11-22T18:25:20.893Z,1136
2022-11-22T18:30:39.073Z,1140
2022-11-22T18:35:57.827Z,1155
2022-11-22T18:41:16.954Z,1179
2022-11-22T18:46:35.108Z,1193
2022-11-22T18:51:53.598Z,1194
2022-11-22T18:57:11.987Z,1190
2022-11-22T19:02:30.540Z,1182
2022-11-22T19:07:49.041Z,1187
2022-11-22T19:13:07.411Z,1189
2022-11-22T19:18:25.905Z,1182
2022-11-22T19:23:51.850Z,1177
2022-11-22T19:28:54.680Z,1176
2022-11-22T19:34:13.189Z,1169
2022-11-22T19:39:36.913Z,1170
2022-11-22T19:44:55.498Z,1195
2022-11-22T19:50:14.314Z,1221
2022-11-22T19:55:32.807Z,1234
2022-11-22T20:00:51.123Z,1262
2022-11-22T20:06:09.822Z,1281
2022-11-22T20:11:27.984Z,1316
2022-11-22T20:16:46.935Z,1341
2022-11-22T20:22:05.194Z,1385
2022-11-22T20:27:24.764Z,1406
2022-11-22T20:32:43.431Z,1422
2022-11-22T20:38:01.635Z,1447
2022-11-22T20:43:19.546Z,1485
2022-11-22T20:48:37.783Z,1499
2022-11-22T20:53:56.515Z,1498
2022-11-22T20:59:14.697Z,1478
2022-11-22T21:04:33.823Z,1480
2022-11-22T21:09:52.645Z,1507
2022-11-22T21:15:11.167Z,1506
2022-11-22T21:20:29.777Z,1523
2022-11-22T21:25:47.683Z,1547
2022-11-22T21:31:06.181Z,1568
2022-11-22T21:36:24.691Z,1570
2022-11-22T21:41:43.455Z,1581
2022-11-22T21:47:01.697Z,1598
2022-11-22T21:52:20.329Z,1594
2022-11-22T21:57:38.770Z,1601
2022-11-22T22:02:56.987Z,1605
2022-11-22T22:08:15.780Z,1595
2022-11-22T22:13:34.014Z,1590
2022-11-22T22:18:52.806Z,1616
2022-11-22T22:24:11.494Z,1612
2022-11-22T22:29:30.563Z,1618
2022-11-22T22:34:50.278Z,1617
2022-11-22T22:40:09.121Z,1611
2022-11-22T22:45:27.390Z,1611
2022-11-22T22:50:45.878Z,1617
2022-11-22T22:56:04.748Z,1626
2022-11-22T23:01:22.947Z,1622
2022-11-22T23:06:41.477Z,1628
2022-11-22T23:12:00.411Z,1628
2022-11-22T23:17:18.686Z,1635
2022-11-22T23:22:37.159Z,1641
2022-11-22T23:27:56.099Z,1645
2022-11-22T23:33:14.651Z,1666
2022-11-22T23:38:32.845Z,1682
2022-11-22T23:43:51.380Z,1689
2022-11-22T23:49:10.125Z,1693
2022-11-22T23:54:28.600Z,1709
2022-11-22T23:59:47.272Z,1713
